sensor_id;sensor_type;location;lat;lon;timestamp;P1;durP1;ratioP1;P2;durP2;ratioP2
3733;SDS011;1882;52.256;8.874;2022-11-27T00:02:20;40.33;;;16.23;;
3733;SDS011;1882;52.256;8.874;2022-11-27T00:04:47;35.77;;;15.87;;
3733;SDS011;1882;52.256;8.874;2022-11-27T00:07:14;38.83;;;16.30;;
3733;SDS011;1882;52.256;8.874;2022-11-27T00:09:40;35.47;;;15.77;;
3733;SDS011;1882;52.256;8.874;2022-11-27T00:12:09;41.73;;;16.77;;
3733;SDS011;1882;52.256;8.874;2022-11-27T00:14:36;39.73;;;16.60;;
3733;SDS011;1882;52.256;8.874;2022-11-27T00:17:06;38.87;;;16.97;;
3733;SDS011;1882;52.256;8.874;2022-11-27T00:19:33;39.00;;;17.63;;
3733;SDS011;1882;52.256;8.874;2022-11-27T00:22:00;31.83;;;15.43;;
3733;SDS011;1882;52.256;8.874;2022-11-27T00:24:27;41.87;;;15.67;;
3733;SDS011;1882;52.256;8.874;2022-11-27T00:26:53;32.53;;;14.93;;
3733;SDS011;1882;52.256;8.874;2022-11-27T00:29:20;32.30;;;14.77;;
3733;SDS011;1882;52.256;8.874;2022-11-27T00:31:47;32.77;;;15.30;;
3733;SDS011;1882;52.256;8.874;2022-11-27T00:34:14;33.37;;;14.83;;
3733;SDS011;1882;52.256;8.874;2022-11-27T00:36:40;31.07;;;14.87;;
3733;SDS011;1882;52.256;8.874;2022-11-27T00:39:13;33.30;;;15.50;;
3733;SDS011;1882;52.256;8.874;2022-11-27T00:41:40;28.50;;;14.40;;
3733;SDS011;1882;52.256;8.874;2022-11-27T00:44:06;35.33;;;14.57;;
3733;SDS011;1882;52.256;8.874;2022-11-27T00:46:33;32.07;;;15.13;;
3733;SDS011;1882;52.256;8.874;2022-11-27T00:49:03;38.60;;;13.07;;
3733;SDS011;1882;52.256;8.874;2022-11-27T00:51:31;27.83;;;12.70;;
3733;SDS011;1882;52.256;8.874;2022-11-27T00:53:58;24.13;;;11.93;;
3733;SDS011;1882;52.256;8.874;2022-11-27T00:56:26;24.93;;;12.10;;
3733;SDS011;1882;52.256;8.874;2022-11-27T00:58:54;23.93;;;11.70;;
3733;SDS011;1882;52.256;8.874;2022-11-27T01:01:25;21.00;;;10.30;;
3733;SDS011;1882;52.256;8.874;2022-11-27T01:03:56;19.33;;;10.80;;
3733;SDS011;1882;52.256;8.874;2022-11-27T01:06:24;25.77;;;10.80;;
3733;SDS011;1882;52.256;8.874;2022-11-27T01:08:54;19.57;;;9.50;;
3733;SDS011;1882;52.256;8.874;2022-11-27T01:11:22;25.20;;;10.17;;
3733;SDS011;1882;52.256;8.874;2022-11-27T01:13:57;20.23;;;9.67;;
3733;SDS011;1882;52.256;8.874;2022-11-27T01:16:26;24.10;;;10.03;;
3733;SDS011;1882;52.256;8.874;2022-11-27T01:18:55;18.50;;;9.50;;
3733;SDS011;1882;52.256;8.874;2022-11-27T01:21:23;16.60;;;9.37;;
3733;SDS011;1882;52.256;8.874;2022-11-27T01:23:52;22.77;;;9.23;;
3733;SDS011;1882;52.256;8.874;2022-11-27T01:26:19;16.73;;;8.40;;
3733;SDS011;1882;52.256;8.874;2022-11-27T01:28:52;21.70;;;8.60;;
3733;SDS011;1882;52.256;8.874;2022-11-27T01:31:22;18.27;;;8.70;;
3733;SDS011;1882;52.256;8.874;2022-11-27T01:33:51;21.33;;;9.33;;
3733;SDS011;1882;52.256;8.874;2022-11-27T01:36:20;16.37;;;7.67;;
3733;SDS011;1882;52.256;8.874;2022-11-27T01:38:47;18.50;;;7.90;;
3733;SDS011;1882;52.256;8.874;2022-11-27T01:41:15;20.03;;;8.60;;
3733;SDS011;1882;52.256;8.874;2022-11-27T01:43:45;20.57;;;7.93;;
3733;SDS011;1882;52.256;8.874;2022-11-27T01:49:04;24.63;;;8.37;;
3733;SDS011;1882;52.256;8.874;2022-11-27T01:54:12;19.33;;;8.00;;
3733;SDS011;1882;52.256;8.874;2022-11-27T01:56:45;15.73;;;8.63;;
3733;SDS011;1882;52.256;8.874;2022-11-27T01:59:15;19.33;;;8.80;;
3733;SDS011;1882;52.256;8.874;2022-11-27T02:01:42;16.93;;;8.67;;
3733;SDS011;1882;52.256;8.874;2022-11-27T02:04:09;20.30;;;8.77;;
3733;SDS011;1882;52.256;8.874;2022-11-27T02:06:36;20.17;;;9.20;;
3733;SDS011;1882;52.256;8.874;2022-11-27T02:09:02;17.33;;;9.40;;
3733;SDS011;1882;52.256;8.874;2022-11-27T02:17:27;18.97;;;9.50;;
3733;SDS011;1882;52.256;8.874;2022-11-27T02:31:37;20.13;;;10.17;;
3733;SDS011;1882;52.256;8.874;2022-11-27T02:36:35;26.43;;;11.07;;
3733;SDS011;1882;52.256;8.874;2022-11-27T02:39:08;20.00;;;9.30;;
3733;SDS011;1882;52.256;8.874;2022-11-27T02:41:40;20.47;;;11.13;;
3733;SDS011;1882;52.256;8.874;2022-11-27T02:44:13;21.50;;;10.13;;
3733;SDS011;1882;52.256;8.874;2022-11-27T02:46:40;21.77;;;11.07;;
3733;SDS011;1882;52.256;8.874;2022-11-27T02:49:08;20.67;;;10.87;;
3733;SDS011;1882;52.256;8.874;2022-11-27T02:51:39;26.70;;;10.53;;
3733;SDS011;1882;52.256;8.874;2022-11-27T02:54:10;23.40;;;11.07;;
3733;SDS011;1882;52.256;8.874;2022-11-27T02:56:39;21.80;;;10.70;;
3733;SDS011;1882;52.256;8.874;2022-11-27T02:59:08;25.03;;;10.57;;
3733;SDS011;1882;52.256;8.874;2022-11-27T03:01:39;23.80;;;10.67;;
3733;SDS011;1882;52.256;8.874;2022-11-27T03:04:11;26.57;;;10.73;;
3733;SDS011;1882;52.256;8.874;2022-11-27T03:06:41;25.03;;;10.87;;
3733;SDS011;1882;52.256;8.874;2022-11-27T03:09:21;24.37;;;11.03;;
3733;SDS011;1882;52.256;8.874;2022-11-27T03:11:51;21.03;;;10.20;;
3733;SDS011;1882;52.256;8.874;2022-11-27T03:14:18;23.73;;;10.60;;
3733;SDS011;1882;52.256;8.874;2022-11-27T03:19:27;20.80;;;10.60;;
3733;SDS011;1882;52.256;8.874;2022-11-27T03:22:00;26.33;;;11.27;;
3733;SDS011;1882;52.256;8.874;2022-11-27T03:24:28;20.10;;;10.47;;
3733;SDS011;1882;52.256;8.874;2022-11-27T03:26:58;18.70;;;9.63;;
3733;SDS011;1882;52.256;8.874;2022-11-27T03:30:09;23.07;;;10.10;;
3733;SDS011;1882;52.256;8.874;2022-11-27T03:32:24;24.27;;;11.37;;
3733;SDS011;1882;52.256;8.874;2022-11-27T03:34:51;22.80;;;10.63;;
3733;SDS011;1882;52.256;8.874;2022-11-27T03:37:18;21.37;;;10.90;;
3733;SDS011;1882;52.256;8.874;2022-11-27T03:39:45;24.00;;;10.87;;
3733;SDS011;1882;52.256;8.874;2022-11-27T03:42:23;25.30;;;10.70;;
3733;SDS011;1882;52.256;8.874;2022-11-27T03:53:34;21.50;;;10.30;;
3733;SDS011;1882;52.256;8.874;2022-11-27T03:56:10;21.63;;;10.27;;
3733;SDS011;1882;52.256;8.874;2022-11-27T03:59:03;27.90;;;10.60;;
3733;SDS011;1882;52.256;8.874;2022-11-27T04:01:36;17.60;;;9.77;;
3733;SDS011;1882;52.256;8.874;2022-11-27T04:04:02;26.90;;;11.20;;
3733;SDS011;1882;52.256;8.874;2022-11-27T04:06:29;23.97;;;10.77;;
3733;SDS011;1882;52.256;8.874;2022-11-27T04:08:56;27.17;;;11.20;;
3733;SDS011;1882;52.256;8.874;2022-11-27T04:11:23;23.40;;;10.30;;
3733;SDS011;1882;52.256;8.874;2022-11-27T04:13:49;22.47;;;9.53;;
3733;SDS011;1882;52.256;8.874;2022-11-27T04:16:17;21.40;;;9.93;;
3733;SDS011;1882;52.256;8.874;2022-11-27T04:18:51;23.97;;;10.40;;
3733;SDS011;1882;52.256;8.874;2022-11-27T04:21:18;23.50;;;10.80;;
3733;SDS011;1882;52.256;8.874;2022-11-27T04:23:45;24.67;;;10.40;;
3733;SDS011;1882;52.256;8.874;2022-11-27T04:26:15;20.60;;;9.40;;
3733;SDS011;1882;52.256;8.874;2022-11-27T04:28:42;22.77;;;10.33;;
3733;SDS011;1882;52.256;8.874;2022-11-27T04:31:08;24.80;;;10.63;;
3733;SDS011;1882;52.256;8.874;2022-11-27T04:33:35;21.70;;;10.90;;
3733;SDS011;1882;52.256;8.874;2022-11-27T04:36:02;24.60;;;10.67;;
3733;SDS011;1882;52.256;8.874;2022-11-27T04:38:29;20.57;;;10.57;;
3733;SDS011;1882;52.256;8.874;2022-11-27T04:40:55;19.97;;;9.90;;
3733;SDS011;1882;52.256;8.874;2022-11-27T04:43:25;25.43;;;9.93;;
3733;SDS011;1882;52.256;8.874;2022-11-27T04:45:52;21.73;;;10.17;;
3733;SDS011;1882;52.256;8.874;2022-11-27T04:48:18;20.77;;;9.97;;
3733;SDS011;1882;52.256;8.874;2022-11-27T04:50:45;25.97;;;10.80;;
3733;SDS011;1882;52.256;8.874;2022-11-27T04:53:12;21.90;;;9.50;;
3733;SDS011;1882;52.256;8.874;2022-11-27T04:55:38;23.47;;;10.77;;
3733;SDS011;1882;52.256;8.874;2022-11-27T04:58:05;24.00;;;10.67;;
3733;SDS011;1882;52.256;8.874;2022-11-27T05:00:32;30.87;;;11.87;;
3733;SDS011;1882;52.256;8.874;2022-11-27T05:02:59;24.70;;;11.20;;
3733;SDS011;1882;52.256;8.874;2022-11-27T05:05:28;22.70;;;10.20;;
3733;SDS011;1882;52.256;8.874;2022-11-27T05:07:57;23.70;;;11.07;;
3733;SDS011;1882;52.256;8.874;2022-11-27T05:10:31;24.60;;;10.63;;
3733;SDS011;1882;52.256;8.874;2022-11-27T05:12:58;23.23;;;10.90;;
3733;SDS011;1882;52.256;8.874;2022-11-27T05:15:34;22.77;;;11.40;;
3733;SDS011;1882;52.256;8.874;2022-11-27T05:18:04;23.03;;;10.90;;
3733;SDS011;1882;52.256;8.874;2022-11-27T05:20:40;28.40;;;11.30;;
3733;SDS011;1882;52.256;8.874;2022-11-27T05:23:10;21.77;;;11.23;;
3733;SDS011;1882;52.256;8.874;2022-11-27T05:25:37;31.40;;;10.40;;
3733;SDS011;1882;52.256;8.874;2022-11-27T05:28:04;20.20;;;9.70;;
3733;SDS011;1882;52.256;8.874;2022-11-27T05:30:38;24.60;;;12.00;;
3733;SDS011;1882;52.256;8.874;2022-11-27T05:33:05;24.00;;;10.40;;
3733;SDS011;1882;52.256;8.874;2022-11-27T05:35:32;24.73;;;10.20;;
3733;SDS011;1882;52.256;8.874;2022-11-27T05:37:58;23.40;;;10.20;;
3733;SDS011;1882;52.256;8.874;2022-11-27T05:40:27;22.57;;;10.40;;
3733;SDS011;1882;52.256;8.874;2022-11-27T05:42:54;24.47;;;10.57;;
3733;SDS011;1882;52.256;8.874;2022-11-27T05:45:21;21.60;;;9.63;;
3733;SDS011;1882;52.256;8.874;2022-11-27T05:47:48;20.37;;;10.20;;
3733;SDS011;1882;52.256;8.874;2022-11-27T05:50:14;22.93;;;11.10;;
3733;SDS011;1882;52.256;8.874;2022-11-27T05:52:41;20.27;;;10.07;;
3733;SDS011;1882;52.256;8.874;2022-11-27T05:55:10;24.40;;;9.90;;
3733;SDS011;1882;52.256;8.874;2022-11-27T05:57:36;22.17;;;10.43;;
3733;SDS011;1882;52.256;8.874;2022-11-27T06:00:04;25.80;;;10.77;;
3733;SDS011;1882;52.256;8.874;2022-11-27T06:02:31;23.23;;;10.63;;
3733;SDS011;1882;52.256;8.874;2022-11-27T06:04:58;21.77;;;10.00;;
3733;SDS011;1882;52.256;8.874;2022-11-27T06:07:25;23.20;;;9.97;;
3733;SDS011;1882;52.256;8.874;2022-11-27T06:09:52;21.03;;;9.93;;
3733;SDS011;1882;52.256;8.874;2022-11-27T06:12:18;25.33;;;9.70;;
3733;SDS011;1882;52.256;8.874;2022-11-27T06:14:45;19.70;;;9.97;;
3733;SDS011;1882;52.256;8.874;2022-11-27T06:17:11;20.33;;;10.20;;
3733;SDS011;1882;52.256;8.874;2022-11-27T06:19:41;22.50;;;9.80;;
3733;SDS011;1882;52.256;8.874;2022-11-27T06:22:08;23.60;;;10.80;;
3733;SDS011;1882;52.256;8.874;2022-11-27T06:24:35;22.87;;;10.10;;
3733;SDS011;1882;52.256;8.874;2022-11-27T06:27:03;19.80;;;10.10;;
3733;SDS011;1882;52.256;8.874;2022-11-27T06:29:30;19.50;;;8.83;;
3733;SDS011;1882;52.256;8.874;2022-11-27T06:31:57;20.37;;;10.50;;
3733;SDS011;1882;52.256;8.874;2022-11-27T06:34:23;21.50;;;9.57;;
3733;SDS011;1882;52.256;8.874;2022-11-27T06:36:50;22.77;;;10.07;;
3733;SDS011;1882;52.256;8.874;2022-11-27T06:39:16;19.10;;;10.00;;
3733;SDS011;1882;52.256;8.874;2022-11-27T06:41:43;22.03;;;10.20;;
3733;SDS011;1882;52.256;8.874;2022-11-27T06:44:10;24.13;;;9.70;;
3733;SDS011;1882;52.256;8.874;2022-11-27T06:46:36;23.80;;;10.40;;
3733;SDS011;1882;52.256;8.874;2022-11-27T06:49:03;19.87;;;9.83;;
3733;SDS011;1882;52.256;8.874;2022-11-27T06:51:30;20.60;;;9.40;;
3733;SDS011;1882;52.256;8.874;2022-11-27T06:53:58;23.93;;;10.00;;
3733;SDS011;1882;52.256;8.874;2022-11-27T06:56:26;17.80;;;9.07;;
3733;SDS011;1882;52.256;8.874;2022-11-27T06:58:54;17.53;;;9.03;;
3733;SDS011;1882;52.256;8.874;2022-11-27T07:01:28;19.53;;;9.50;;
3733;SDS011;1882;52.256;8.874;2022-11-27T07:03:56;18.30;;;9.43;;
3733;SDS011;1882;52.256;8.874;2022-11-27T07:06:23;26.17;;;9.53;;
3733;SDS011;1882;52.256;8.874;2022-11-27T07:08:51;22.70;;;9.53;;
3733;SDS011;1882;52.256;8.874;2022-11-27T07:11:20;19.23;;;9.60;;
3733;SDS011;1882;52.256;8.874;2022-11-27T07:13:48;20.73;;;9.00;;
3733;SDS011;1882;52.256;8.874;2022-11-27T07:16:17;17.73;;;8.70;;
3733;SDS011;1882;52.256;8.874;2022-11-27T07:18:45;22.57;;;9.40;;
3733;SDS011;1882;52.256;8.874;2022-11-27T07:21:15;20.83;;;9.07;;
3733;SDS011;1882;52.256;8.874;2022-11-27T07:23:44;20.73;;;9.13;;
3733;SDS011;1882;52.256;8.874;2022-11-27T07:26:16;20.90;;;10.90;;
3733;SDS011;1882;52.256;8.874;2022-11-27T07:28:44;21.27;;;9.40;;
3733;SDS011;1882;52.256;8.874;2022-11-27T07:31:15;17.40;;;8.87;;
3733;SDS011;1882;52.256;8.874;2022-11-27T07:33:43;19.10;;;8.43;;
3733;SDS011;1882;52.256;8.874;2022-11-27T07:36:11;18.63;;;9.20;;
3733;SDS011;1882;52.256;8.874;2022-11-27T07:38:40;21.00;;;9.90;;
3733;SDS011;1882;52.256;8.874;2022-11-27T07:41:07;17.43;;;8.73;;
3733;SDS011;1882;52.256;8.874;2022-11-27T07:43:34;21.47;;;9.73;;
3733;SDS011;1882;52.256;8.874;2022-11-27T07:46:02;20.17;;;8.97;;
3733;SDS011;1882;52.256;8.874;2022-11-27T07:48:30;15.87;;;8.93;;
3733;SDS011;1882;52.256;8.874;2022-11-27T07:50:57;21.03;;;9.33;;
3733;SDS011;1882;52.256;8.874;2022-11-27T07:53:24;17.23;;;8.50;;
3733;SDS011;1882;52.256;8.874;2022-11-27T07:55:50;17.07;;;9.43;;
3733;SDS011;1882;52.256;8.874;2022-11-27T07:58:17;22.20;;;10.03;;
3733;SDS011;1882;52.256;8.874;2022-11-27T08:00:44;17.40;;;8.17;;
3733;SDS011;1882;52.256;8.874;2022-11-27T08:03:10;17.57;;;8.30;;
3733;SDS011;1882;52.256;8.874;2022-11-27T08:05:37;23.37;;;10.17;;
3733;SDS011;1882;52.256;8.874;2022-11-27T08:08:04;20.63;;;9.47;;
3733;SDS011;1882;52.256;8.874;2022-11-27T08:10:33;16.70;;;8.73;;
3733;SDS011;1882;52.256;8.874;2022-11-27T08:13:01;19.60;;;8.73;;
3733;SDS011;1882;52.256;8.874;2022-11-27T08:15:27;17.10;;;9.30;;
3733;SDS011;1882;52.256;8.874;2022-11-27T08:17:54;17.00;;;9.47;;
3733;SDS011;1882;52.256;8.874;2022-11-27T08:20:21;19.00;;;9.40;;
3733;SDS011;1882;52.256;8.874;2022-11-27T08:22:47;16.77;;;8.87;;
3733;SDS011;1882;52.256;8.874;2022-11-27T08:25:14;19.50;;;9.13;;
3733;SDS011;1882;52.256;8.874;2022-11-27T08:27:41;19.53;;;9.40;;
3733;SDS011;1882;52.256;8.874;2022-11-27T08:30:08;19.73;;;8.70;;
3733;SDS011;1882;52.256;8.874;2022-11-27T08:32:39;19.40;;;8.40;;
3733;SDS011;1882;52.256;8.874;2022-11-27T08:35:07;15.20;;;8.73;;
3733;SDS011;1882;52.256;8.874;2022-11-27T08:37:35;24.43;;;8.93;;
3733;SDS011;1882;52.256;8.874;2022-11-27T08:40:02;20.40;;;8.50;;
3733;SDS011;1882;52.256;8.874;2022-11-27T08:42:31;17.07;;;8.47;;
3733;SDS011;1882;52.256;8.874;2022-11-27T08:44:58;19.70;;;8.30;;
3733;SDS011;1882;52.256;8.874;2022-11-27T08:47:24;19.20;;;9.70;;
3733;SDS011;1882;52.256;8.874;2022-11-27T08:49:51;16.20;;;7.93;;
3733;SDS011;1882;52.256;8.874;2022-11-27T08:52:18;18.33;;;8.47;;
3733;SDS011;1882;52.256;8.874;2022-11-27T08:54:45;17.13;;;9.27;;
3733;SDS011;1882;52.256;8.874;2022-11-27T08:57:12;18.30;;;9.10;;
3733;SDS011;1882;52.256;8.874;2022-11-27T08:59:40;16.50;;;8.40;;
3733;SDS011;1882;52.256;8.874;2022-11-27T09:02:09;29.13;;;9.07;;
3733;SDS011;1882;52.256;8.874;2022-11-27T09:04:37;12.40;;;7.23;;
3733;SDS011;1882;52.256;8.874;2022-11-27T09:07:04;13.47;;;7.77;;
3733;SDS011;1882;52.256;8.874;2022-11-27T09:09:31;19.97;;;8.93;;
3733;SDS011;1882;52.256;8.874;2022-11-27T09:11:58;15.63;;;7.47;;
3733;SDS011;1882;52.256;8.874;2022-11-27T09:14:24;16.10;;;8.10;;
3733;SDS011;1882;52.256;8.874;2022-11-27T09:16:51;12.03;;;7.10;;
3733;SDS011;1882;52.256;8.874;2022-11-27T09:19:19;17.97;;;7.53;;
3733;SDS011;1882;52.256;8.874;2022-11-27T09:21:48;13.87;;;7.20;;
3733;SDS011;1882;52.256;8.874;2022-11-27T09:24:15;18.80;;;8.10;;
3733;SDS011;1882;52.256;8.874;2022-11-27T09:26:41;16.13;;;8.00;;
3733;SDS011;1882;52.256;8.874;2022-11-27T09:29:10;11.93;;;6.73;;
3733;SDS011;1882;52.256;8.874;2022-11-27T09:31:36;12.97;;;7.47;;
3733;SDS011;1882;52.256;8.874;2022-11-27T09:34:03;12.90;;;7.13;;
3733;SDS011;1882;52.256;8.874;2022-11-27T09:36:30;14.33;;;6.90;;
3733;SDS011;1882;52.256;8.874;2022-11-27T09:38:58;18.10;;;7.40;;
3733;SDS011;1882;52.256;8.874;2022-11-27T09:41:47;13.47;;;6.87;;
3733;SDS011;1882;52.256;8.874;2022-11-27T09:47:05;13.13;;;6.83;;
3733;SDS011;1882;52.256;8.874;2022-11-27T09:49:40;19.10;;;8.20;;
3733;SDS011;1882;52.256;8.874;2022-11-27T09:58:20;12.50;;;7.20;;
3733;SDS011;1882;52.256;8.874;2022-11-27T10:00:49;12.43;;;6.70;;
3733;SDS011;1882;52.256;8.874;2022-11-27T10:03:17;18.67;;;7.20;;
3733;SDS011;1882;52.256;8.874;2022-11-27T10:05:51;14.70;;;7.17;;
3733;SDS011;1882;52.256;8.874;2022-11-27T10:08:34;12.83;;;6.80;;
3733;SDS011;1882;52.256;8.874;2022-11-27T10:21:52;15.23;;;6.97;;
3733;SDS011;1882;52.256;8.874;2022-11-27T10:24:24;14.57;;;7.03;;
3733;SDS011;1882;52.256;8.874;2022-11-27T10:27:21;11.40;;;6.60;;
3733;SDS011;1882;52.256;8.874;2022-11-27T10:29:54;11.43;;;5.80;;
3733;SDS011;1882;52.256;8.874;2022-11-27T10:32:25;13.23;;;6.90;;
3733;SDS011;1882;52.256;8.874;2022-11-27T10:35:18;13.23;;;6.90;;
3733;SDS011;1882;52.256;8.874;2022-11-27T10:37:57;19.23;;;7.40;;
3733;SDS011;1882;52.256;8.874;2022-11-27T10:40:48;16.30;;;6.93;;
3733;SDS011;1882;52.256;8.874;2022-11-27T10:43:18;14.80;;;6.70;;
3733;SDS011;1882;52.256;8.874;2022-11-27T10:45:53;12.77;;;7.23;;
3733;SDS011;1882;52.256;8.874;2022-11-27T10:48:23;10.43;;;6.17;;
3733;SDS011;1882;52.256;8.874;2022-11-27T10:50:50;13.03;;;6.60;;
3733;SDS011;1882;52.256;8.874;2022-11-27T10:56:11;16.77;;;6.40;;
3733;SDS011;1882;52.256;8.874;2022-11-27T10:59:10;13.47;;;7.17;;
3733;SDS011;1882;52.256;8.874;2022-11-27T11:01:49;13.13;;;6.67;;
3733;SDS011;1882;52.256;8.874;2022-11-27T11:04:29;13.43;;;6.50;;
3733;SDS011;1882;52.256;8.874;2022-11-27T11:07:23;11.13;;;6.37;;
3733;SDS011;1882;52.256;8.874;2022-11-27T11:09:51;10.60;;;6.27;;
3733;SDS011;1882;52.256;8.874;2022-11-27T11:12:20;12.13;;;6.53;;
3733;SDS011;1882;52.256;8.874;2022-11-27T11:17:25;13.70;;;6.60;;
3733;SDS011;1882;52.256;8.874;2022-11-27T11:19:52;14.17;;;7.50;;
3733;SDS011;1882;52.256;8.874;2022-11-27T11:22:19;12.20;;;6.40;;
3733;SDS011;1882;52.256;8.874;2022-11-27T11:24:47;14.57;;;6.40;;
3733;SDS011;1882;52.256;8.874;2022-11-27T11:27:16;14.00;;;7.30;;
3733;SDS011;1882;52.256;8.874;2022-11-27T11:29:50;13.03;;;6.60;;
3733;SDS011;1882;52.256;8.874;2022-11-27T11:34:47;13.33;;;6.87;;
3733;SDS011;1882;52.256;8.874;2022-11-27T11:37:27;14.87;;;6.80;;
3733;SDS011;1882;52.256;8.874;2022-11-27T11:42:28;13.90;;;5.93;;
3733;SDS011;1882;52.256;8.874;2022-11-27T11:45:01;13.03;;;6.10;;
3733;SDS011;1882;52.256;8.874;2022-11-27T11:47:28;9.30;;;6.20;;
3733;SDS011;1882;52.256;8.874;2022-11-27T11:49:54;14.10;;;6.40;;
3733;SDS011;1882;52.256;8.874;2022-11-27T12:00:43;11.70;;;6.37;;
3733;SDS011;1882;52.256;8.874;2022-11-27T12:06:41;10.80;;;5.97;;
3733;SDS011;1882;52.256;8.874;2022-11-27T12:20:08;9.97;;;5.50;;
3733;SDS011;1882;52.256;8.874;2022-11-27T12:22:42;9.30;;;5.83;;
3733;SDS011;1882;52.256;8.874;2022-11-27T12:30:22;10.10;;;5.50;;
3733;SDS011;1882;52.256;8.874;2022-11-27T12:41:40;9.73;;;5.10;;
3733;SDS011;1882;52.256;8.874;2022-11-27T12:44:15;8.20;;;5.20;;
3733;SDS011;1882;52.256;8.874;2022-11-27T12:49:56;11.60;;;5.57;;
3733;SDS011;1882;52.256;8.874;2022-11-27T12:52:30;7.20;;;4.83;;
3733;SDS011;1882;52.256;8.874;2022-11-27T12:55:01;9.00;;;4.83;;
3733;SDS011;1882;52.256;8.874;2022-11-27T12:57:48;12.77;;;5.50;;
3733;SDS011;1882;52.256;8.874;2022-11-27T13:00:18;6.70;;;4.70;;
3733;SDS011;1882;52.256;8.874;2022-11-27T13:02:54;10.30;;;5.33;;
3733;SDS011;1882;52.256;8.874;2022-11-27T13:05:23;7.53;;;5.23;;
3733;SDS011;1882;52.256;8.874;2022-11-27T13:07:57;9.13;;;5.00;;
3733;SDS011;1882;52.256;8.874;2022-11-27T13:10:38;8.83;;;4.70;;
3733;SDS011;1882;52.256;8.874;2022-11-27T13:15:49;7.77;;;4.60;;
3733;SDS011;1882;52.256;8.874;2022-11-27T13:18:29;8.27;;;5.20;;
3733;SDS011;1882;52.256;8.874;2022-11-27T13:20:58;8.70;;;4.77;;
3733;SDS011;1882;52.256;8.874;2022-11-27T13:23:31;8.00;;;4.13;;
3733;SDS011;1882;52.256;8.874;2022-11-27T13:25:58;8.20;;;4.67;;
3733;SDS011;1882;52.256;8.874;2022-11-27T13:28:35;8.20;;;5.00;;
3733;SDS011;1882;52.256;8.874;2022-11-27T13:31:05;7.27;;;4.40;;
3733;SDS011;1882;52.256;8.874;2022-11-27T13:33:39;11.47;;;4.70;;
3733;SDS011;1882;52.256;8.874;2022-11-27T13:36:18;6.60;;;4.10;;
3733;SDS011;1882;52.256;8.874;2022-11-27T13:39:05;14.63;;;5.20;;
3733;SDS011;1882;52.256;8.874;2022-11-27T13:41:33;10.07;;;5.13;;
3733;SDS011;1882;52.256;8.874;2022-11-27T13:44:21;7.47;;;4.90;;
3733;SDS011;1882;52.256;8.874;2022-11-27T13:46:50;8.67;;;4.20;;
3733;SDS011;1882;52.256;8.874;2022-11-27T13:49:41;7.20;;;4.30;;
3733;SDS011;1882;52.256;8.874;2022-11-27T13:52:09;8.73;;;4.90;;
3733;SDS011;1882;52.256;8.874;2022-11-27T13:54:38;7.60;;;4.00;;
3733;SDS011;1882;52.256;8.874;2022-11-27T13:57:09;10.20;;;4.67;;
3733;SDS011;1882;52.256;8.874;2022-11-27T13:59:52;6.47;;;3.93;;
3733;SDS011;1882;52.256;8.874;2022-11-27T14:02:23;9.27;;;4.30;;
3733;SDS011;1882;52.256;8.874;2022-11-27T14:04:51;9.77;;;3.83;;
3733;SDS011;1882;52.256;8.874;2022-11-27T14:07:22;7.47;;;4.10;;
3733;SDS011;1882;52.256;8.874;2022-11-27T14:09:53;6.87;;;3.90;;
3733;SDS011;1882;52.256;8.874;2022-11-27T14:12:25;8.67;;;4.30;;
3733;SDS011;1882;52.256;8.874;2022-11-27T14:15:05;7.50;;;4.50;;
3733;SDS011;1882;52.256;8.874;2022-11-27T14:20:18;4.57;;;3.57;;
3733;SDS011;1882;52.256;8.874;2022-11-27T14:22:47;10.63;;;3.90;;
3733;SDS011;1882;52.256;8.874;2022-11-27T14:25:35;7.53;;;3.80;;
3733;SDS011;1882;52.256;8.874;2022-11-27T14:28:13;6.60;;;3.83;;
3733;SDS011;1882;52.256;8.874;2022-11-27T14:33:17;8.70;;;4.40;;
3733;SDS011;1882;52.256;8.874;2022-11-27T14:35:57;4.90;;;3.47;;
3733;SDS011;1882;52.256;8.874;2022-11-27T14:38:26;6.07;;;3.80;;
3733;SDS011;1882;52.256;8.874;2022-11-27T14:40:53;10.70;;;4.17;;
3733;SDS011;1882;52.256;8.874;2022-11-27T14:43:33;8.83;;;4.23;;
3733;SDS011;1882;52.256;8.874;2022-11-27T14:46:00;9.47;;;4.00;;
3733;SDS011;1882;52.256;8.874;2022-11-27T14:51:31;9.63;;;4.10;;
3733;SDS011;1882;52.256;8.874;2022-11-27T14:54:01;7.80;;;4.40;;
3733;SDS011;1882;52.256;8.874;2022-11-27T14:56:34;6.80;;;4.57;;
3733;SDS011;1882;52.256;8.874;2022-11-27T14:59:02;9.53;;;3.40;;
3733;SDS011;1882;52.256;8.874;2022-11-27T15:01:31;6.00;;;3.97;;
3733;SDS011;1882;52.256;8.874;2022-11-27T15:04:03;8.27;;;3.33;;
3733;SDS011;1882;52.256;8.874;2022-11-27T15:06:34;6.20;;;3.50;;
3733;SDS011;1882;52.256;8.874;2022-11-27T15:09:03;10.83;;;4.90;;
3733;SDS011;1882;52.256;8.874;2022-11-27T15:11:53;12.27;;;6.37;;
3733;SDS011;1882;52.256;8.874;2022-11-27T15:14:23;7.53;;;4.13;;
3733;SDS011;1882;52.256;8.874;2022-11-27T15:16:51;7.20;;;3.83;;
3733;SDS011;1882;52.256;8.874;2022-11-27T15:22:01;5.10;;;3.20;;
3733;SDS011;1882;52.256;8.874;2022-11-27T15:24:35;7.33;;;3.90;;
3733;SDS011;1882;52.256;8.874;2022-11-27T15:27:21;6.30;;;3.50;;
3733;SDS011;1882;52.256;8.874;2022-11-27T15:32:15;7.27;;;3.87;;
3733;SDS011;1882;52.256;8.874;2022-11-27T15:34:53;7.37;;;3.47;;
3733;SDS011;1882;52.256;8.874;2022-11-27T15:40:00;5.23;;;3.67;;
3733;SDS011;1882;52.256;8.874;2022-11-27T15:42:27;7.47;;;3.50;;
3733;SDS011;1882;52.256;8.874;2022-11-27T15:44:54;6.93;;;3.50;;
3733;SDS011;1882;52.256;8.874;2022-11-27T15:49:58;5.27;;;3.30;;
3733;SDS011;1882;52.256;8.874;2022-11-27T15:52:25;5.20;;;3.63;;
3733;SDS011;1882;52.256;8.874;2022-11-27T15:54:52;7.03;;;3.60;;
3733;SDS011;1882;52.256;8.874;2022-11-27T15:57:20;13.63;;;7.50;;
3733;SDS011;1882;52.256;8.874;2022-11-27T15:59:47;7.30;;;4.33;;
3733;SDS011;1882;52.256;8.874;2022-11-27T16:02:14;7.90;;;3.57;;
3733;SDS011;1882;52.256;8.874;2022-11-27T16:04:43;7.73;;;3.67;;
3733;SDS011;1882;52.256;8.874;2022-11-27T16:07:10;5.23;;;3.20;;
3733;SDS011;1882;52.256;8.874;2022-11-27T16:09:37;5.30;;;3.33;;
3733;SDS011;1882;52.256;8.874;2022-11-27T16:12:05;5.50;;;2.90;;
3733;SDS011;1882;52.256;8.874;2022-11-27T16:14:32;7.10;;;3.20;;
3733;SDS011;1882;52.256;8.874;2022-11-27T16:17:00;4.80;;;3.20;;
3733;SDS011;1882;52.256;8.874;2022-11-27T16:19:27;6.93;;;3.40;;
3733;SDS011;1882;52.256;8.874;2022-11-27T16:21:53;5.87;;;3.70;;
3733;SDS011;1882;52.256;8.874;2022-11-27T16:24:20;5.20;;;3.50;;
3733;SDS011;1882;52.256;8.874;2022-11-27T16:26:47;6.53;;;3.40;;
3733;SDS011;1882;52.256;8.874;2022-11-27T16:29:14;5.57;;;3.50;;
3733;SDS011;1882;52.256;8.874;2022-11-27T16:31:40;3.90;;;2.90;;
3733;SDS011;1882;52.256;8.874;2022-11-27T16:34:07;5.40;;;3.10;;
3733;SDS011;1882;52.256;8.874;2022-11-27T16:36:38;5.50;;;3.20;;
3733;SDS011;1882;52.256;8.874;2022-11-27T16:39:06;3.60;;;3.00;;
3733;SDS011;1882;52.256;8.874;2022-11-27T16:41:35;4.27;;;2.80;;
3733;SDS011;1882;52.256;8.874;2022-11-27T16:44:07;4.37;;;2.93;;
3733;SDS011;1882;52.256;8.874;2022-11-27T16:46:36;9.40;;;3.20;;
3733;SDS011;1882;52.256;8.874;2022-11-27T16:49:04;7.53;;;3.50;;
3733;SDS011;1882;52.256;8.874;2022-11-27T16:51:32;4.70;;;3.13;;
3733;SDS011;1882;52.256;8.874;2022-11-27T16:54:01;4.50;;;3.00;;
3733;SDS011;1882;52.256;8.874;2022-11-27T16:56:29;4.77;;;3.00;;
3733;SDS011;1882;52.256;8.874;2022-11-27T16:58:58;7.13;;;3.60;;
3733;SDS011;1882;52.256;8.874;2022-11-27T17:01:30;8.63;;;3.37;;
3733;SDS011;1882;52.256;8.874;2022-11-27T17:03:59;6.00;;;3.43;;
3733;SDS011;1882;52.256;8.874;2022-11-27T17:06:29;3.73;;;2.90;;
3733;SDS011;1882;52.256;8.874;2022-11-27T17:08:57;3.53;;;2.90;;
3733;SDS011;1882;52.256;8.874;2022-11-27T17:11:26;4.27;;;3.40;;
3733;SDS011;1882;52.256;8.874;2022-11-27T17:13:56;5.13;;;3.17;;
3733;SDS011;1882;52.256;8.874;2022-11-27T17:16:25;4.20;;;3.17;;
3733;SDS011;1882;52.256;8.874;2022-11-27T17:18:52;5.77;;;3.00;;
3733;SDS011;1882;52.256;8.874;2022-11-27T17:21:26;8.33;;;3.17;;
3733;SDS011;1882;52.256;8.874;2022-11-27T17:23:54;4.60;;;3.20;;
3733;SDS011;1882;52.256;8.874;2022-11-27T17:26:22;4.50;;;3.13;;